createdAt,value
2023-03-24T00:01:24.985Z,47.90
2023-03-24T00:03:53.114Z,51.70
2023-03-24T00:06:23.010Z,59.90
2023-03-24T00:08:51.097Z,62.00
2023-03-24T00:11:21.503Z,49.30
2023-03-24T00:13:50.739Z,47.80
2023-03-24T00:16:20.020Z,51.50
2023-03-24T00:18:53.210Z,49.10
2023-03-24T00:21:27.474Z,53.30
2023-03-24T00:23:58.367Z,58.50
2023-03-24T00:26:26.300Z,101.90
2023-03-24T00:28:55.753Z,100.90
2023-03-24T00:31:24.858Z,56.40
2023-03-24T00:33:54.845Z,50.60
2023-03-24T00:36:25.856Z,43.50
2023-03-24T00:38:56.473Z,44.40
2023-03-24T00:41:26.974Z,40.70
2023-03-24T00:43:58.779Z,39.90
2023-03-24T00:46:29.877Z,37.20
2023-03-24T00:49:06.911Z,34.50
2023-03-24T00:51:38.539Z,30.30
2023-03-24T00:54:09.354Z,30.60
2023-03-24T00:56:40.609Z,28.10
2023-03-24T00:59:10.611Z,22.90
2023-03-24T01:01:41.361Z,25.00
2023-03-24T01:04:10.554Z,19.20
2023-03-24T01:06:40.093Z,21.20
2023-03-24T01:09:08.895Z,22.20
2023-03-24T01:11:41.375Z,20.20
2023-03-24T01:14:11.836Z,21.20
2023-03-24T01:16:40.616Z,25.80
2023-03-24T01:19:09.530Z,34.10
2023-03-24T01:21:39.406Z,42.50
2023-03-24T01:24:08.423Z,40.50
2023-03-24T01:26:36.488Z,33.90
2023-03-24T01:29:05.080Z,37.00
2023-03-24T01:31:33.295Z,29.70
2023-03-24T01:34:01.436Z,41.70
2023-03-24T01:36:29.390Z,46.40
2023-03-24T01:39:01.162Z,72.80
2023-03-24T01:41:41.205Z,33.40
2023-03-24T01:44:43.192Z,29.80
2023-03-24T01:47:11.188Z,28.30
2023-03-24T01:49:45.758Z,27.40
2023-03-24T01:52:22.743Z,28.50
2023-03-24T01:54:58.332Z,28.00
2023-03-24T01:57:35.804Z,23.40
2023-03-24T02:00:09.401Z,22.50
2023-03-24T02:02:55.067Z,18.00
2023-03-24T02:05:28.465Z,17.10
2023-03-24T02:08:10.811Z,17.90
2023-03-24T02:10:39.157Z,15.50
2023-03-24T02:13:08.010Z,14.80
2023-03-24T02:15:54.266Z,14.20
2023-03-24T02:18:37.905Z,17.80
2023-03-24T02:21:43.744Z,12.50
2023-03-24T02:24:43.311Z,11.40
2023-03-24T02:27:30.208Z,11.50
2023-03-24T02:30:40.493Z,12.30
2023-03-24T02:33:46.090Z,13.20
2023-03-24T02:36:50.797Z,14.60
2023-03-24T02:39:24.649Z,14.40
2023-03-24T02:42:14.423Z,13.40
2023-03-24T02:44:58.651Z,13.60
2023-03-24T02:47:41.106Z,13.10
2023-03-24T02:50:19.463Z,15.60
2023-03-24T02:52:56.734Z,18.40
2023-03-24T02:55:33.905Z,19.00
2023-03-24T02:58:07.512Z,15.20
2023-03-24T03:00:59.464Z,16.10
2023-03-24T03:03:49.580Z,14.20
2023-03-24T03:06:24.454Z,12.50
2023-03-24T03:08:55.963Z,15.30
2023-03-24T03:11:23.891Z,16.00
2023-03-24T03:14:01.322Z,18.40
2023-03-24T03:16:38.710Z,13.60
2023-03-24T03:19:18.108Z,39.40
2023-03-24T03:21:49.672Z,31.80
2023-03-24T03:24:27.026Z,37.90
2023-03-24T03:27:02.452Z,24.60
2023-03-24T03:29:38.371Z,18.10
2023-03-24T03:32:09.856Z,16.70
2023-03-24T03:34:44.410Z,18.80
2023-03-24T03:37:36.678Z,14.20
2023-03-24T03:40:12.162Z,15.40
2023-03-24T03:42:42.155Z,14.00
2023-03-24T03:45:11.330Z,16.00
2023-03-24T03:47:40.498Z,33.40
2023-03-24T03:50:10.133Z,32.60
2023-03-24T03:52:41.679Z,50.10
2023-03-24T03:55:12.080Z,38.00
2023-03-24T03:57:41.436Z,15.00
2023-03-24T04:00:16.070Z,15.10
2023-03-24T04:03:07.432Z,12.10
2023-03-24T04:05:38.562Z,12.80
2023-03-24T04:08:22.266Z,13.00
2023-03-24T04:11:36.226Z,16.30
2023-03-24T04:14:37.698Z,17.20
2023-03-24T04:17:42.691Z,36.40
2023-03-24T04:20:22.383Z,27.90
2023-03-24T04:23:05.224Z,18.70
2023-03-24T04:25:57.018Z,16.90
2023-03-24T04:28:48.026Z,14.80
2023-03-24T04:31:39.229Z,25.30
2023-03-24T04:34:28.898Z,21.90
2023-03-24T04:37:06.026Z,20.90
2023-03-24T04:39:47.006Z,21.80
2023-03-24T04:42:23.730Z,17.50
2023-03-24T04:44:52.822Z,18.90
2023-03-24T04:50:38.775Z,17.90
2023-03-24T04:53:10.704Z,15.40
2023-03-24T04:55:50.911Z,13.60
2023-03-24T04:58:27.445Z,12.00
2023-03-24T05:00:56.752Z,10.30
2023-03-24T05:03:26.393Z,10.80
2023-03-24T05:05:54.639Z,12.40
2023-03-24T05:08:23.131Z,10.10
2023-03-24T05:10:51.516Z,9.30
2023-03-24T05:13:19.577Z,10.30
2023-03-24T05:15:53.884Z,12.00
2023-03-24T05:18:29.785Z,12.70
2023-03-24T05:20:58.167Z,12.90
2023-03-24T05:23:26.545Z,16.50
2023-03-24T05:25:55.049Z,15.00
2023-03-24T05:28:24.289Z,11.10
2023-03-24T05:30:53.778Z,13.90
2023-03-24T05:33:44.834Z,13.60
2023-03-24T05:36:16.360Z,10.20
2023-03-24T05:38:45.830Z,11.80
2023-03-24T05:41:13.796Z,22.10
2023-03-24T05:43:42.818Z,107.70
2023-03-24T05:46:12.255Z,81.70
2023-03-24T05:48:41.346Z,29.80
2023-03-24T05:51:13.146Z,29.50
2023-03-24T05:53:41.406Z,32.90
2023-03-24T05:56:33.103Z,38.60
2023-03-24T05:59:07.808Z,30.60
2023-03-24T06:01:56.974Z,37.00
2023-03-24T06:04:37.165Z,91.70
2023-03-24T06:07:11.667Z,214.70
2023-03-24T06:09:42.667Z,210.90
2023-03-24T06:12:13.229Z,174.90
2023-03-24T06:14:48.499Z,238.20
2023-03-24T06:17:16.408Z,149.80
2023-03-24T06:19:49.947Z,204.90
2023-03-24T06:22:38.731Z,164.70
2023-03-24T06:25:12.336Z,146.40
2023-03-24T06:27:48.536Z,73.50
2023-03-24T06:30:19.362Z,160.50
2023-03-24T06:32:47.672Z,248.70
2023-03-24T06:35:17.914Z,281.40
2023-03-24T06:38:15.448Z,95.80
2023-03-24T06:40:45.094Z,194.60
2023-03-24T06:43:13.284Z,224.80
2023-03-24T06:45:45.736Z,292.90
2023-03-24T06:48:19.734Z,382.20
2023-03-24T06:50:48.297Z,112.00
2023-03-24T06:53:17.170Z,190.70
2023-03-24T06:55:46.252Z,257.80
2023-03-24T06:58:15.763Z,169.60
2023-03-24T07:00:55.394Z,212.50
2023-03-24T07:03:48.796Z,259.60
2023-03-24T07:06:18.577Z,136.20
2023-03-24T07:08:50.753Z,145.70
2023-03-24T07:11:19.629Z,78.50
2023-03-24T07:13:55.391Z,246.70
2023-03-24T07:16:23.739Z,170.30
2023-03-24T07:18:59.568Z,213.90
2023-03-24T07:21:28.381Z,224.70
2023-03-24T07:23:56.749Z,195.30
2023-03-24T07:26:35.275Z,125.50
2023-03-24T07:29:11.899Z,130.10
2023-03-24T07:31:54.535Z,188.50
2023-03-24T07:34:22.603Z,102.80
2023-03-24T07:36:50.610Z,93.80
2023-03-24T07:39:18.730Z,134.90
2023-03-24T07:41:47.343Z,103.70
2023-03-24T07:44:29.782Z,79.40
2023-03-24T07:47:01.743Z,245.40
2023-03-24T07:49:29.727Z,109.50
2023-03-24T07:52:09.712Z,114.80
2023-03-24T07:54:46.781Z,87.20
2023-03-24T07:57:37.400Z,64.80
2023-03-24T08:00:18.053Z,95.90
2023-03-24T08:02:53.792Z,94.00
2023-03-24T08:05:29.708Z,230.80
2023-03-24T08:08:16.671Z,266.50
2023-03-24T08:10:46.556Z,286.70
2023-03-24T08:13:14.732Z,261.60
2023-03-24T08:15:42.652Z,158.80
2023-03-24T08:18:10.641Z,189.90
2023-03-24T08:20:38.455Z,176.70
2023-03-24T08:23:07.322Z,163.90
2023-03-24T08:25:36.514Z,110.30
2023-03-24T08:28:06.161Z,160.40
2023-03-24T08:30:34.235Z,102.80
2023-03-24T08:33:03.684Z,89.50
2023-03-24T08:35:34.528Z,146.20
2023-03-24T08:38:06.058Z,83.40
2023-03-24T08:40:36.194Z,47.00
2023-03-24T08:43:08.720Z,73.50
2023-03-24T08:45:37.322Z,193.60
2023-03-24T08:48:07.362Z,175.10
2023-03-24T08:50:39.989Z,116.20
2023-03-24T08:53:09.591Z,107.00
2023-03-24T08:55:41.817Z,55.10
2023-03-24T08:58:15.351Z,87.40
2023-03-24T09:00:45.037Z,73.20
2023-03-24T09:03:18.503Z,77.40
2023-03-24T09:05:47.922Z,77.30
2023-03-24T09:08:18.356Z,141.70
2023-03-24T09:10:49.806Z,113.10
2023-03-24T09:13:20.076Z,95.20
2023-03-24T09:15:53.723Z,60.40
2023-03-24T09:18:22.400Z,74.10
2023-03-24T09:20:51.230Z,60.00
2023-03-24T09:23:20.450Z,29.00
2023-03-24T09:25:51.251Z,60.00
2023-03-24T09:28:19.705Z,25.10
2023-03-24T09:30:47.919Z,33.40
2023-03-24T09:33:16.328Z,57.50
2023-03-24T09:35:44.346Z,28.90
2023-03-24T09:38:12.498Z,41.90
2023-03-24T09:40:43.671Z,33.30
2023-03-24T09:43:31.862Z,30.60
2023-03-24T09:46:04.037Z,29.50
2023-03-24T09:48:55.114Z,37.10
2023-03-24T09:51:28.684Z,58.80
2023-03-24T09:54:17.164Z,24.80
2023-03-24T09:56:48.035Z,10.20
2023-03-24T09:59:29.828Z,12.60
2023-03-24T10:01:58.278Z,20.80
2023-03-24T10:04:28.889Z,13.20
2023-03-24T10:07:16.444Z,12.80
2023-03-24T10:09:48.992Z,10.10
2023-03-24T10:12:45.503Z,15.30
2023-03-24T10:15:37.401Z,9.30
2023-03-24T10:18:06.460Z,26.90
2023-03-24T10:20:47.306Z,36.20
2023-03-24T10:23:30.438Z,49.70
2023-03-24T10:26:23.188Z,47.50
2023-03-24T10:29:04.896Z,31.70
2023-03-24T10:31:35.095Z,40.60
2023-03-24T10:34:03.386Z,38.20
2023-03-24T10:36:32.400Z,21.20
2023-03-24T10:39:09.584Z,22.40
2023-03-24T10:41:46.841Z,21.80
2023-03-24T10:44:15.096Z,33.80
2023-03-24T10:46:47.183Z,25.70
2023-03-24T10:49:20.666Z,20.90
2023-03-24T10:51:51.922Z,19.20
2023-03-24T10:54:24.039Z,20.00
2023-03-24T10:56:57.952Z,11.60
2023-03-24T10:59:32.224Z,16.90
2023-03-24T11:02:16.325Z,15.70
2023-03-24T11:04:54.892Z,16.50
2023-03-24T11:07:35.410Z,17.10
2023-03-24T11:10:09.224Z,18.10
2023-03-24T11:12:40.166Z,16.70
2023-03-24T11:15:29.457Z,19.50
2023-03-24T11:18:16.691Z,21.20
2023-03-24T11:20:47.608Z,21.80
2023-03-24T11:23:20.163Z,29.00
2023-03-24T11:26:02.675Z,35.80
2023-03-24T11:28:37.955Z,24.90
2023-03-24T11:31:09.104Z,13.40
2023-03-24T11:33:47.391Z,10.20
2023-03-24T11:36:30.979Z,9.50
2023-03-24T11:39:04.754Z,9.60
2023-03-24T11:41:42.021Z,10.80
2023-03-24T11:44:19.031Z,9.70
2023-03-24T11:46:59.703Z,11.00
2023-03-24T11:49:36.165Z,9.40
2023-03-24T11:52:09.672Z,9.70
2023-03-24T11:54:37.842Z,10.30
2023-03-24T11:57:13.787Z,9.00
2023-03-24T11:59:58.305Z,13.30
2023-03-24T12:02:57.455Z,11.30
2023-03-24T12:05:37.682Z,11.20
2023-03-24T12:08:09.041Z,12.10
2023-03-24T12:11:04.866Z,11.40
2023-03-24T12:13:39.340Z,8.40
2023-03-24T12:16:20.001Z,8.70
2023-03-24T12:19:07.213Z,8.40
2023-03-24T12:21:52.998Z,8.70
2023-03-24T12:24:39.936Z,6.60
2023-03-24T12:27:22.112Z,7.80
2023-03-24T12:30:02.720Z,8.40
2023-03-24T12:32:58.879Z,9.00
2023-03-24T12:36:01.595Z,6.40
2023-03-24T12:38:58.392Z,12.40
2023-03-24T12:41:49.612Z,3.40
2023-03-24T12:44:39.292Z,7.60
2023-03-24T12:47:44.888Z,5.10
2023-03-24T12:50:17.876Z,5.50
2023-03-24T12:53:12.118Z,5.30
2023-03-24T12:55:48.635Z,6.90
2023-03-24T12:58:23.986Z,5.60
2023-03-24T13:01:13.316Z,3.20
2023-03-24T13:03:48.725Z,3.90
2023-03-24T13:06:24.019Z,3.20
2023-03-24T13:09:30.113Z,3.60
2023-03-24T13:12:02.916Z,3.40
2023-03-24T13:14:42.140Z,3.30
2023-03-24T13:17:18.007Z,4.40
2023-03-24T13:19:46.932Z,3.20
2023-03-24T13:22:18.324Z,2.90
2023-03-24T13:24:47.965Z,1.30
2023-03-24T13:27:28.746Z,3.40
2023-03-24T13:30:20.911Z,5.00
2023-03-24T13:32:56.791Z,2.80
2023-03-24T13:38:19.446Z,2.50
2023-03-24T13:40:53.618Z,3.00
2023-03-24T13:43:29.226Z,3.80
2023-03-24T13:46:03.536Z,1.60
2023-03-24T13:48:41.870Z,1.90
2023-03-24T13:51:33.052Z,2.30
2023-03-24T13:54:18.312Z,2.10
2023-03-24T13:57:01.695Z,3.40
2023-03-24T14:00:15.839Z,3.10
2023-03-24T14:02:50.064Z,2.90
2023-03-24T14:05:54.916Z,3.20
2023-03-24T14:08:53.940Z,1.50
2023-03-24T14:11:57.210Z,4.50
2023-03-24T14:14:27.534Z,10.30
2023-03-24T14:17:13.777Z,6.50
2023-03-24T14:20:08.797Z,10.00
2023-03-24T14:22:48.475Z,3.50
2023-03-24T14:25:16.321Z,7.50
2023-03-24T14:27:46.802Z,28.40
2023-03-24T14:30:30.968Z,7.70
2023-03-24T14:33:02.275Z,6.80
2023-03-24T14:35:43.861Z,4.90
2023-03-24T14:38:14.578Z,7.00
2023-03-24T14:40:46.349Z,8.40
2023-03-24T14:43:23.218Z,11.70
2023-03-24T14:45:56.830Z,20.00
2023-03-24T14:48:36.121Z,10.80
2023-03-24T14:51:27.396Z,9.40
2023-03-24T14:53:59.563Z,18.70
2023-03-24T14:56:34.844Z,9.00
2023-03-24T14:59:09.452Z,7.50
2023-03-24T15:01:38.518Z,8.40
2023-03-24T15:04:08.513Z,5.40
2023-03-24T15:06:47.550Z,7.40
2023-03-24T15:09:17.666Z,6.10
2023-03-24T15:11:48.504Z,4.80
2023-03-24T15:14:26.301Z,5.40
2023-03-24T15:17:06.583Z,6.00
2023-03-24T15:19:35.622Z,8.50
2023-03-24T15:22:11.764Z,7.60
2023-03-24T15:24:43.443Z,8.60
2023-03-24T15:27:26.717Z,9.00
2023-03-24T15:30:00.177Z,5.30
2023-03-24T15:32:32.371Z,7.40
2023-03-24T15:35:05.731Z,5.80
2023-03-24T15:37:41.695Z,10.20
2023-03-24T15:43:00.332Z,7.00
2023-03-24T15:45:31.894Z,8.10
2023-03-24T15:48:16.766Z,9.60
2023-03-24T15:51:09.382Z,11.20
2023-03-24T15:53:44.634Z,7.20
2023-03-24T15:56:20.258Z,21.00
2023-03-24T15:58:54.779Z,12.30
2023-03-24T16:01:31.702Z,21.10
2023-03-24T16:04:02.134Z,27.60
2023-03-24T16:06:35.455Z,18.40
2023-03-24T16:09:13.770Z,40.00
2023-03-24T16:11:42.729Z,20.00
2023-03-24T16:14:32.561Z,27.30
2023-03-24T16:17:03.755Z,35.30
2023-03-24T16:19:31.676Z,22.30
2023-03-24T16:21:59.964Z,23.40
2023-03-24T16:24:27.860Z,20.60
2023-03-24T16:26:55.817Z,9.60
2023-03-24T16:29:24.132Z,10.40
2023-03-24T16:31:55.396Z,7.30
2023-03-24T16:34:23.944Z,9.40
2023-03-24T16:36:54.448Z,13.20
2023-03-24T16:39:25.679Z,10.80
2023-03-24T16:41:54.368Z,10.70
2023-03-24T16:44:23.258Z,9.20
2023-03-24T16:46:53.885Z,9.20
2023-03-24T16:49:23.993Z,3.90
2023-03-24T16:51:56.186Z,4.60
2023-03-24T16:54:24.034Z,4.30
2023-03-24T16:56:52.020Z,5.40
2023-03-24T16:59:20.832Z,5.40
2023-03-24T17:01:52.302Z,9.70
2023-03-24T17:04:24.758Z,7.90
2023-03-24T17:06:54.440Z,7.30
2023-03-24T17:09:22.945Z,10.00
2023-03-24T17:11:56.361Z,9.60
2023-03-24T17:14:24.682Z,10.00
2023-03-24T17:16:53.770Z,12.80
2023-03-24T17:19:23.641Z,14.20
2023-03-24T17:22:05.911Z,13.20
2023-03-24T17:24:36.056Z,14.10
2023-03-24T17:27:10.376Z,18.90
2023-03-24T17:29:38.284Z,24.40
2023-03-24T17:32:06.145Z,17.10
2023-03-24T17:34:34.097Z,12.00
2023-03-24T17:37:01.994Z,13.40
2023-03-24T17:39:30.242Z,218.00
2023-03-24T17:42:01.320Z,42.10
2023-03-24T17:44:29.231Z,36.50
2023-03-24T17:46:57.169Z,17.70
2023-03-24T17:49:25.058Z,19.20
2023-03-24T17:51:52.903Z,12.30
2023-03-24T17:54:21.316Z,26.00
2023-03-24T17:56:49.299Z,89.30
2023-03-24T17:59:17.740Z,99.30
2023-03-24T18:01:47.270Z,63.20
2023-03-24T18:04:15.425Z,647.90
2023-03-24T18:06:44.256Z,751.20
2023-03-24T18:09:12.051Z,290.90
2023-03-24T18:11:39.841Z,158.10
2023-03-24T18:14:09.295Z,78.30
2023-03-24T18:16:39.374Z,380.70
2023-03-24T18:19:07.661Z,230.10
2023-03-24T18:21:35.876Z,77.00
2023-03-24T18:24:04.633Z,94.40
2023-03-24T18:26:33.648Z,416.70
2023-03-24T18:29:01.552Z,752.10
2023-03-24T18:31:32.501Z,91.20
2023-03-24T18:34:00.643Z,62.90
2023-03-24T18:36:29.211Z,61.80
2023-03-24T18:39:07.007Z,118.50
2023-03-24T18:41:37.452Z,352.20
2023-03-24T18:44:08.697Z,446.60
2023-03-24T18:46:37.034Z,357.70
2023-03-24T18:49:06.286Z,296.90
2023-03-24T18:51:35.598Z,91.60
2023-03-24T18:54:03.626Z,113.80
2023-03-24T18:56:31.570Z,143.40
2023-03-24T18:58:59.584Z,30.80
2023-03-24T19:01:27.387Z,24.70
2023-03-24T19:03:55.527Z,17.50
2023-03-24T19:06:31.214Z,18.70
2023-03-24T19:11:28.232Z,15.30
2023-03-24T19:13:57.045Z,16.20
2023-03-24T19:16:25.063Z,16.70
2023-03-24T19:18:53.132Z,18.60
2023-03-24T19:21:23.245Z,15.90
2023-03-24T19:23:52.560Z,17.20
2023-03-24T19:26:21.209Z,24.00
2023-03-24T19:28:49.331Z,21.00
2023-03-24T19:31:19.975Z,16.80
2023-03-24T19:33:48.060Z,16.40
2023-03-24T19:36:15.980Z,17.10
2023-03-24T19:38:44.398Z,14.00
2023-03-24T19:41:14.370Z,15.10
2023-03-24T19:43:43.452Z,13.80
2023-03-24T19:46:11.317Z,15.80
2023-03-24T19:48:39.245Z,19.20
2023-03-24T19:51:07.175Z,21.70
2023-03-24T19:53:35.142Z,26.70
2023-03-24T19:56:04.222Z,22.00
2023-03-24T19:58:32.233Z,29.60
2023-03-24T20:01:00.142Z,23.70
2023-03-24T20:03:29.099Z,19.00
2023-03-24T20:06:03.461Z,26.20
2023-03-24T20:08:31.347Z,27.20
2023-03-24T20:10:59.110Z,31.60
2023-03-24T20:13:27.775Z,25.80
2023-03-24T20:15:55.909Z,24.00
2023-03-24T20:18:24.066Z,18.10
2023-03-24T20:20:55.396Z,16.70
2023-03-24T20:23:23.163Z,18.10
2023-03-24T20:25:52.189Z,19.80
2023-03-24T20:28:20.559Z,21.00
2023-03-24T20:30:49.079Z,22.00
2023-03-24T20:33:17.055Z,17.60
2023-03-24T20:35:44.932Z,18.10
2023-03-24T20:38:13.573Z,34.10
2023-03-24T20:40:41.402Z,18.80
2023-03-24T20:43:09.542Z,22.20
2023-03-24T20:45:37.465Z,14.20
2023-03-24T20:48:05.704Z,27.00
2023-03-24T20:50:33.589Z,28.80
2023-03-24T20:53:01.438Z,24.10
2023-03-24T20:55:29.281Z,19.70
2023-03-24T20:57:57.111Z,20.00
2023-03-24T21:00:25.056Z,26.10
2023-03-24T21:02:52.987Z,22.10
2023-03-24T21:05:21.563Z,16.30
2023-03-24T21:07:49.369Z,13.50
2023-03-24T21:10:17.364Z,14.30
2023-03-24T21:12:53.445Z,19.30
2023-03-24T21:15:25.209Z,14.70
2023-03-24T21:17:54.572Z,14.80
2023-03-24T21:20:26.730Z,19.00
2023-03-24T21:22:55.615Z,12.90
2023-03-24T21:25:28.505Z,15.00
2023-03-24T21:27:57.872Z,13.80
2023-03-24T21:30:27.580Z,16.40
2023-03-24T21:32:57.339Z,13.00
2023-03-24T21:35:25.626Z,14.00
2023-03-24T21:37:54.035Z,15.70
2023-03-24T21:40:24.834Z,17.80
2023-03-24T21:42:54.021Z,15.80
2023-03-24T21:45:23.584Z,13.60
2023-03-24T21:47:54.904Z,14.90
2023-03-24T21:50:23.579Z,13.00
2023-03-24T21:52:53.668Z,12.40
2023-03-24T21:55:23.178Z,17.10
2023-03-24T21:57:51.983Z,14.90
2023-03-24T22:00:26.285Z,14.40
2023-03-24T22:02:54.380Z,15.20
2023-03-24T22:05:24.995Z,18.10
2023-03-24T22:07:54.095Z,17.70
2023-03-24T22:10:29.813Z,16.00
2023-03-24T22:12:57.859Z,20.30
2023-03-24T22:15:25.930Z,20.60
2023-03-24T22:17:53.869Z,25.70
2023-03-24T22:20:22.800Z,29.90
2023-03-24T22:22:50.685Z,21.70
2023-03-24T22:25:18.807Z,21.40
2023-03-24T22:27:50.078Z,19.80
2023-03-24T22:30:20.214Z,13.90
2023-03-24T22:32:48.400Z,15.30
2023-03-24T22:35:16.764Z,14.70
2023-03-24T22:37:44.941Z,17.50
2023-03-24T22:40:12.811Z,15.00
2023-03-24T22:42:41.061Z,15.00
2023-03-24T22:45:09.374Z,17.90
2023-03-24T22:47:37.214Z,18.40
2023-03-24T22:50:06.010Z,15.50
2023-03-24T22:52:34.052Z,16.50
2023-03-24T22:55:02.021Z,15.50
2023-03-24T22:57:29.983Z,18.50
2023-03-24T23:00:01.846Z,17.00
2023-03-24T23:02:30.873Z,16.30
2023-03-24T23:04:59.329Z,15.50
2023-03-24T23:07:28.313Z,15.10
2023-03-24T23:09:59.568Z,15.00
2023-03-24T23:12:27.757Z,14.60
2023-03-24T23:14:56.069Z,14.90
2023-03-24T23:17:24.403Z,14.60
2023-03-24T23:19:54.020Z,15.80
2023-03-24T23:22:23.129Z,16.90
2023-03-24T23:25:02.284Z,16.20
2023-03-24T23:27:38.013Z,19.40
2023-03-24T23:30:08.296Z,22.20
2023-03-24T23:32:37.004Z,17.70
2023-03-24T23:35:08.157Z,16.90
2023-03-24T23:37:37.150Z,16.80
2023-03-24T23:40:13.079Z,15.80
2023-03-24T23:45:18.351Z,15.70
2023-03-24T23:47:49.590Z,17.00
2023-03-24T23:50:19.875Z,15.20
2023-03-24T23:52:48.097Z,17.10
2023-03-24T23:55:18.200Z,17.40
2023-03-24T23:57:49.324Z,18.50
